sensor_id;sensor_type;location;lat;lon;timestamp;pressure;altitude;pressure_sealevel;temperature;humidity
69909;BME280;57190;47.918;8.112;2024-03-22T00:01:53;91524.47;;;6.54;78.03
69909;BME280;57190;47.918;8.112;2024-03-22T00:04:18;91523.69;;;6.54;78.10
69909;BME280;57190;47.918;8.112;2024-03-22T00:06:46;91528.16;;;6.53;77.60
69909;BME280;57190;47.918;8.112;2024-03-22T00:09:12;91519.72;;;6.44;77.59
69909;BME280;57190;47.918;8.112;2024-03-22T00:11:41;91523.66;;;6.42;78.70
69909;BME280;57190;47.918;8.112;2024-03-22T00:14:08;91521.91;;;6.48;78.33
69909;BME280;57190;47.918;8.112;2024-03-22T00:16:34;91521.72;;;6.49;78.82
69909;BME280;57190;47.918;8.112;2024-03-22T00:18:59;91511.81;;;6.56;78.21
69909;BME280;57190;47.918;8.112;2024-03-22T00:21:25;91517.91;;;6.57;78.04
69909;BME280;57190;47.918;8.112;2024-03-22T00:23:50;91511.81;;;6.56;77.98
69909;BME280;57190;47.918;8.112;2024-03-22T00:26:16;91515.94;;;6.52;77.82
69909;BME280;57190;47.918;8.112;2024-03-22T00:28:42;91516.13;;;6.39;78.17
69909;BME280;57190;47.918;8.112;2024-03-22T00:31:08;91515.63;;;6.30;78.39
69909;BME280;57190;47.918;8.112;2024-03-22T00:33:34;91514.03;;;6.29;78.80
69909;BME280;57190;47.918;8.112;2024-03-22T00:35:59;91511.38;;;6.29;78.51
69909;BME280;57190;47.918;8.112;2024-03-22T00:38:25;91512.53;;;6.33;78.95
69909;BME280;57190;47.918;8.112;2024-03-22T00:40:50;91510.47;;;6.35;78.69
69909;BME280;57190;47.918;8.112;2024-03-22T00:43:16;91507.84;;;6.35;79.02
69909;BME280;57190;47.918;8.112;2024-03-22T00:45:42;91502.78;;;6.34;79.37
69909;BME280;57190;47.918;8.112;2024-03-22T00:48:07;91501.16;;;6.33;79.09
69909;BME280;57190;47.918;8.112;2024-03-22T00:50:33;91498.50;;;6.33;78.41
69909;BME280;57190;47.918;8.112;2024-03-22T00:52:59;91503.31;;;6.36;78.41
69909;BME280;57190;47.918;8.112;2024-03-22T00:55:24;91503.56;;;6.34;78.18
69909;BME280;57190;47.918;8.112;2024-03-22T00:57:51;91497.66;;;6.32;78.93
69909;BME280;57190;47.918;8.112;2024-03-22T01:00:16;91508.84;;;6.34;78.47
69909;BME280;57190;47.918;8.112;2024-03-22T01:02:43;91499.16;;;6.28;78.51
69909;BME280;57190;47.918;8.112;2024-03-22T01:05:09;91498.22;;;6.22;78.79
69909;BME280;57190;47.918;8.112;2024-03-22T01:07:36;91495.06;;;6.13;78.46
69909;BME280;57190;47.918;8.112;2024-03-22T01:10:02;91494.03;;;6.14;79.06
69909;BME280;57190;47.918;8.112;2024-03-22T01:12:27;91490.00;;;6.12;79.35
69909;BME280;57190;47.918;8.112;2024-03-22T01:14:54;91484.09;;;6.10;79.41
69909;BME280;57190;47.918;8.112;2024-03-22T01:17:19;91492.06;;;6.10;78.98
69909;BME280;57190;47.918;8.112;2024-03-22T01:19:45;91493.69;;;6.11;79.11
69909;BME280;57190;47.918;8.112;2024-03-22T01:22:10;91482.81;;;6.01;78.40
69909;BME280;57190;47.918;8.112;2024-03-22T01:24:36;91487.59;;;5.92;78.99
69909;BME280;57190;47.918;8.112;2024-03-22T01:27:01;91486.56;;;5.93;78.81
69909;BME280;57190;47.918;8.112;2024-03-22T01:29:27;91483.91;;;5.93;78.95
69909;BME280;57190;47.918;8.112;2024-03-22T01:31:56;91485.88;;;5.97;79.47
69909;BME280;57190;47.918;8.112;2024-03-22T01:34:21;91481.63;;;5.96;79.37
69909;BME280;57190;47.918;8.112;2024-03-22T01:36:47;91477.94;;;5.97;79.51
69909;BME280;57190;47.918;8.112;2024-03-22T01:39:12;91470.78;;;5.98;79.38
69909;BME280;57190;47.918;8.112;2024-03-22T01:41:39;91466.13;;;6.00;79.42
69909;BME280;57190;47.918;8.112;2024-03-22T01:44:05;91472.22;;;6.01;79.60
69909;BME280;57190;47.918;8.112;2024-03-22T01:46:30;91464.25;;;6.01;79.76
69909;BME280;57190;47.918;8.112;2024-03-22T01:48:56;91457.72;;;6.03;79.79
69909;BME280;57190;47.918;8.112;2024-03-22T01:51:21;91457.28;;;6.06;79.15
69909;BME280;57190;47.918;8.112;2024-03-22T01:53:47;91452.78;;;6.07;79.14
69909;BME280;57190;47.918;8.112;2024-03-22T01:56:13;91444.19;;;6.11;79.07
69909;BME280;57190;47.918;8.112;2024-03-22T01:58:39;91443.94;;;6.13;78.96
69909;BME280;57190;47.918;8.112;2024-03-22T02:01:06;91435.56;;;6.16;79.57
69909;BME280;57190;47.918;8.112;2024-03-22T02:03:31;91422.19;;;6.23;79.13
69909;BME280;57190;47.918;8.112;2024-03-22T02:05:56;91427.03;;;6.26;78.79
69909;BME280;57190;47.918;8.112;2024-03-22T02:08:22;91426.03;;;6.27;79.17
69909;BME280;57190;47.918;8.112;2024-03-22T02:10:48;91415.41;;;6.27;79.00
69909;BME280;57190;47.918;8.112;2024-03-22T02:13:13;91411.75;;;6.28;78.09
69909;BME280;57190;47.918;8.112;2024-03-22T02:15:39;91411.50;;;6.29;78.57
69909;BME280;57190;47.918;8.112;2024-03-22T02:18:04;91408.75;;;6.24;78.37
69909;BME280;57190;47.918;8.112;2024-03-22T02:20:30;91411.81;;;6.21;78.52
69909;BME280;57190;47.918;8.112;2024-03-22T02:22:56;91410.66;;;6.17;78.79
69909;BME280;57190;47.918;8.112;2024-03-22T02:25:21;91414.69;;;6.08;78.85
69909;BME280;57190;47.918;8.112;2024-03-22T02:27:47;91410.06;;;6.03;78.94
69909;BME280;57190;47.918;8.112;2024-03-22T02:30:16;91412.72;;;6.03;78.97
69909;BME280;57190;47.918;8.112;2024-03-22T02:32:41;91405.78;;;6.02;78.92
69909;BME280;57190;47.918;8.112;2024-03-22T02:35:07;91400.72;;;6.01;78.83
69909;BME280;57190;47.918;8.112;2024-03-22T02:37:33;91396.88;;;5.96;78.57
69909;BME280;57190;47.918;8.112;2024-03-22T02:39:59;91402.91;;;6.04;78.35
69909;BME280;57190;47.918;8.112;2024-03-22T02:42:24;91405.31;;;6.05;78.74
69909;BME280;57190;47.918;8.112;2024-03-22T02:44:50;91393.19;;;5.97;78.08
69909;BME280;57190;47.918;8.112;2024-03-22T02:47:15;91393.06;;;5.92;77.81
69909;BME280;57190;47.918;8.112;2024-03-22T02:49:41;91386.28;;;5.66;78.15
69909;BME280;57190;47.918;8.112;2024-03-22T02:52:06;91389.31;;;5.51;79.24
69909;BME280;57190;47.918;8.112;2024-03-22T02:54:32;91392.50;;;5.60;79.42
69909;BME280;57190;47.918;8.112;2024-03-22T02:56:58;91382.63;;;5.67;79.58
69909;BME280;57190;47.918;8.112;2024-03-22T02:59:26;91371.84;;;5.80;78.99
69909;BME280;57190;47.918;8.112;2024-03-22T03:01:52;91379.09;;;5.85;78.84
69909;BME280;57190;47.918;8.112;2024-03-22T03:04:17;91371.03;;;5.80;78.53
69909;BME280;57190;47.918;8.112;2024-03-22T03:06:43;91357.81;;;5.80;79.06
69909;BME280;57190;47.918;8.112;2024-03-22T03:09:11;91364.41;;;5.89;79.30
69909;BME280;57190;47.918;8.112;2024-03-22T03:11:43;91357.81;;;5.80;78.46
69909;BME280;57190;47.918;8.112;2024-03-22T03:14:11;91367.19;;;5.64;78.40
69909;BME280;57190;47.918;8.112;2024-03-22T03:16:37;91367.53;;;5.67;80.23
69909;BME280;57190;47.918;8.112;2024-03-22T03:19:02;91373.06;;;5.66;79.97
69909;BME280;57190;47.918;8.112;2024-03-22T03:21:28;91375.59;;;5.61;79.59
69909;BME280;57190;47.918;8.112;2024-03-22T03:23:53;91373.59;;;5.56;79.44
69909;BME280;57190;47.918;8.112;2024-03-22T03:26:22;91363.34;;;5.48;79.83
69909;BME280;57190;47.918;8.112;2024-03-22T03:29:20;91370.44;;;5.47;80.05
69909;BME280;57190;47.918;8.112;2024-03-22T03:31:45;91367.97;;;5.53;80.36
69909;BME280;57190;47.918;8.112;2024-03-22T03:34:11;91359.69;;;5.61;80.89
69909;BME280;57190;47.918;8.112;2024-03-22T03:36:37;91350.84;;;5.67;80.44
69909;BME280;57190;47.918;8.112;2024-03-22T03:39:21;91356.06;;;5.74;80.62
69909;BME280;57190;47.918;8.112;2024-03-22T03:42:11;91354.34;;;5.79;81.47
69909;BME280;57190;47.918;8.112;2024-03-22T03:44:37;91343.97;;;5.78;80.82
69909;BME280;57190;47.918;8.112;2024-03-22T03:47:03;91344.53;;;5.68;80.52
69909;BME280;57190;47.918;8.112;2024-03-22T03:49:29;91335.06;;;5.60;80.41
69909;BME280;57190;47.918;8.112;2024-03-22T03:51:54;91334.84;;;5.62;81.11
69909;BME280;57190;47.918;8.112;2024-03-22T03:54:23;91331.88;;;5.70;80.94
69909;BME280;57190;47.918;8.112;2024-03-22T03:56:48;91334.06;;;5.73;81.13
69909;BME280;57190;47.918;8.112;2024-03-22T03:59:14;91332.72;;;5.82;81.50
69909;BME280;57190;47.918;8.112;2024-03-22T04:01:39;91332.28;;;5.86;80.50
69909;BME280;57190;47.918;8.112;2024-03-22T04:04:05;91324.88;;;5.88;80.94
69909;BME280;57190;47.918;8.112;2024-03-22T04:06:30;91324.59;;;5.96;81.62
69909;BME280;57190;47.918;8.112;2024-03-22T04:08:56;91324.63;;;6.08;81.25
69909;BME280;57190;47.918;8.112;2024-03-22T04:11:22;91320.59;;;6.17;80.01
69909;BME280;57190;47.918;8.112;2024-03-22T04:13:48;91322.69;;;6.27;79.40
69909;BME280;57190;47.918;8.112;2024-03-22T04:16:13;91320.38;;;6.31;79.81
69909;BME280;57190;47.918;8.112;2024-03-22T04:18:39;91329.47;;;6.35;79.45
69909;BME280;57190;47.918;8.112;2024-03-22T04:21:04;91327.16;;;6.38;78.97
69909;BME280;57190;47.918;8.112;2024-03-22T04:23:30;91318.78;;;6.41;78.91
69909;BME280;57190;47.918;8.112;2024-03-22T04:25:57;91316.81;;;6.37;79.31
69909;BME280;57190;47.918;8.112;2024-03-22T04:28:24;91308.75;;;6.43;79.19
69909;BME280;57190;47.918;8.112;2024-03-22T04:31:00;91308.63;;;6.38;79.03
69909;BME280;57190;47.918;8.112;2024-03-22T04:33:27;91316.13;;;6.18;80.16
69909;BME280;57190;47.918;8.112;2024-03-22T04:35:53;91318.06;;;6.10;80.04
69909;BME280;57190;47.918;8.112;2024-03-22T04:38:19;91318.50;;;6.07;80.07
69909;BME280;57190;47.918;8.112;2024-03-22T04:40:44;91308.50;;;6.09;80.59
69909;BME280;57190;47.918;8.112;2024-03-22T04:43:10;91310.91;;;6.11;80.94
69909;BME280;57190;47.918;8.112;2024-03-22T04:45:35;91309.66;;;6.13;80.84
69909;BME280;57190;47.918;8.112;2024-03-22T04:48:03;91317.03;;;6.23;81.13
69909;BME280;57190;47.918;8.112;2024-03-22T04:50:29;91315.88;;;6.31;80.40
69909;BME280;57190;47.918;8.112;2024-03-22T04:52:55;91307.38;;;6.41;80.08
69909;BME280;57190;47.918;8.112;2024-03-22T04:55:20;91309.78;;;6.42;80.37
69909;BME280;57190;47.918;8.112;2024-03-22T04:57:46;91318.66;;;6.48;79.81
69909;BME280;57190;47.918;8.112;2024-03-22T05:00:12;91315.88;;;6.43;80.36
69909;BME280;57190;47.918;8.112;2024-03-22T05:02:38;91315.69;;;6.33;80.32
69909;BME280;57190;47.918;8.112;2024-03-22T05:05:03;91313.22;;;6.19;81.25
69909;BME280;57190;47.918;8.112;2024-03-22T05:07:29;91307.34;;;6.17;81.85
69909;BME280;57190;47.918;8.112;2024-03-22T05:09:54;91303.13;;;6.16;81.63
69909;BME280;57190;47.918;8.112;2024-03-22T05:12:20;91293.19;;;6.11;81.71
69909;BME280;57190;47.918;8.112;2024-03-22T05:14:45;91298.16;;;6.08;82.42
69909;BME280;57190;47.918;8.112;2024-03-22T05:17:11;91296.66;;;6.12;82.69
69909;BME280;57190;47.918;8.112;2024-03-22T05:19:36;91293.59;;;5.96;81.18
69909;BME280;57190;47.918;8.112;2024-03-22T05:22:02;91303.94;;;5.86;81.70
69909;BME280;57190;47.918;8.112;2024-03-22T05:24:28;91301.94;;;5.70;81.08
69909;BME280;57190;47.918;8.112;2024-03-22T05:26:53;91289.66;;;5.75;81.14
69909;BME280;57190;47.918;8.112;2024-03-22T05:29:19;91291.97;;;5.83;81.34
69909;BME280;57190;47.918;8.112;2024-03-22T05:31:49;91286.22;;;5.87;82.00
69909;BME280;57190;47.918;8.112;2024-03-22T05:34:16;91290.59;;;5.93;82.72
69909;BME280;57190;47.918;8.112;2024-03-22T05:36:42;91282.34;;;6.01;82.34
69909;BME280;57190;47.918;8.112;2024-03-22T05:39:08;91277.75;;;6.20;82.47
69909;BME280;57190;47.918;8.112;2024-03-22T05:41:33;91276.63;;;6.28;81.38
69909;BME280;57190;47.918;8.112;2024-03-22T05:43:59;91276.97;;;6.32;81.49
69909;BME280;57190;47.918;8.112;2024-03-22T05:46:24;91273.97;;;6.40;81.19
69909;BME280;57190;47.918;8.112;2024-03-22T05:48:50;91275.56;;;6.53;80.50
69909;BME280;57190;47.918;8.112;2024-03-22T05:51:17;91279.47;;;6.62;80.74
69909;BME280;57190;47.918;8.112;2024-03-22T05:53:45;91277.16;;;6.78;79.55
69909;BME280;57190;47.918;8.112;2024-03-22T05:56:14;91269.88;;;6.85;78.68
69909;BME280;57190;47.918;8.112;2024-03-22T05:58:40;91279.88;;;6.95;78.76
69909;BME280;57190;47.918;8.112;2024-03-22T06:01:05;91273.16;;;7.04;78.60
69909;BME280;57190;47.918;8.112;2024-03-22T06:03:31;91265.66;;;7.13;77.92
69909;BME280;57190;47.918;8.112;2024-03-22T06:05:58;91276.38;;;7.06;78.62
69909;BME280;57190;47.918;8.112;2024-03-22T06:08:27;91279.16;;;6.99;79.31
69909;BME280;57190;47.918;8.112;2024-03-22T06:10:54;91280.78;;;7.00;79.20
69909;BME280;57190;47.918;8.112;2024-03-22T06:13:21;91270.50;;;7.04;80.15
69909;BME280;57190;47.918;8.112;2024-03-22T06:16:05;91266.91;;;7.10;79.81
69909;BME280;57190;47.918;8.112;2024-03-22T06:18:34;91268.72;;;7.21;80.05
69909;BME280;57190;47.918;8.112;2024-03-22T06:20:59;91273.66;;;7.30;79.67
69909;BME280;57190;47.918;8.112;2024-03-22T06:23:58;91271.69;;;7.25;80.09
69909;BME280;57190;47.918;8.112;2024-03-22T06:26:42;91264.91;;;7.29;79.62
69909;BME280;57190;47.918;8.112;2024-03-22T06:29:18;91267.38;;;7.36;79.46
69909;BME280;57190;47.918;8.112;2024-03-22T06:31:44;91275.47;;;7.41;79.02
69909;BME280;57190;47.918;8.112;2024-03-22T06:34:09;91269.19;;;7.47;78.42
69909;BME280;57190;47.918;8.112;2024-03-22T06:36:34;91264.53;;;7.54;78.75
69909;BME280;57190;47.918;8.112;2024-03-22T06:39:00;91259.56;;;7.58;78.16
69909;BME280;57190;47.918;8.112;2024-03-22T06:41:27;91256.50;;;7.66;78.61
69909;BME280;57190;47.918;8.112;2024-03-22T06:43:53;91255.78;;;7.71;77.32
69909;BME280;57190;47.918;8.112;2024-03-22T06:46:18;91261.03;;;7.83;77.52
69909;BME280;57190;47.918;8.112;2024-03-22T06:48:44;91260.63;;;7.91;77.53
69909;BME280;57190;47.918;8.112;2024-03-22T06:51:10;91254.84;;;7.94;78.05
69909;BME280;57190;47.918;8.112;2024-03-22T06:53:35;91253.88;;;8.00;78.60
69909;BME280;57190;47.918;8.112;2024-03-22T06:56:01;91249.53;;;8.11;78.62
69909;BME280;57190;47.918;8.112;2024-03-22T06:58:26;91245.25;;;8.27;77.86
69909;BME280;57190;47.918;8.112;2024-03-22T07:00:52;91248.38;;;8.41;78.51
69909;BME280;57190;47.918;8.112;2024-03-22T07:03:17;91249.75;;;8.44;77.39
69909;BME280;57190;47.918;8.112;2024-03-22T07:05:43;91256.59;;;8.57;77.40
69909;BME280;57190;47.918;8.112;2024-03-22T07:08:09;91252.38;;;8.78;76.80
69909;BME280;57190;47.918;8.112;2024-03-22T07:10:38;91257.72;;;9.00;76.39
69909;BME280;57190;47.918;8.112;2024-03-22T07:13:05;91246.47;;;9.42;74.46
69909;BME280;57190;47.918;8.112;2024-03-22T07:15:30;91256.78;;;9.88;72.04
69909;BME280;57190;47.918;8.112;2024-03-22T07:17:57;91255.19;;;9.93;73.03
69909;BME280;57190;47.918;8.112;2024-03-22T07:20:23;91252.91;;;10.06;72.75
69909;BME280;57190;47.918;8.112;2024-03-22T07:22:49;91246.84;;;10.16;72.72
69909;BME280;57190;47.918;8.112;2024-03-22T07:25:14;91245.97;;;10.81;70.51
69909;BME280;57190;47.918;8.112;2024-03-22T07:27:40;91249.47;;;10.81;70.32
69909;BME280;57190;47.918;8.112;2024-03-22T07:30:06;91249.97;;;10.78;70.02
69909;BME280;57190;47.918;8.112;2024-03-22T07:32:31;91255.59;;;10.82;70.12
69909;BME280;57190;47.918;8.112;2024-03-22T07:34:57;91244.41;;;10.85;69.00
69909;BME280;57190;47.918;8.112;2024-03-22T07:37:23;91249.06;;;11.05;68.33
69909;BME280;57190;47.918;8.112;2024-03-22T07:39:48;91244.28;;;11.12;66.96
69909;BME280;57190;47.918;8.112;2024-03-22T07:42:14;91237.06;;;11.13;65.55
69909;BME280;57190;47.918;8.112;2024-03-22T07:44:40;91248.00;;;11.11;64.95
69909;BME280;57190;47.918;8.112;2024-03-22T07:47:05;91248.84;;;11.17;66.48
69909;BME280;57190;47.918;8.112;2024-03-22T07:49:31;91247.81;;;11.28;65.06
69909;BME280;57190;47.918;8.112;2024-03-22T07:51:59;91243.59;;;11.48;65.38
69909;BME280;57190;47.918;8.112;2024-03-22T07:54:24;91251.19;;;11.87;65.43
69909;BME280;57190;47.918;8.112;2024-03-22T07:56:49;91246.16;;;12.32;63.79
69909;BME280;57190;47.918;8.112;2024-03-22T07:59:15;91242.94;;;13.52;60.96
69909;BME280;57190;47.918;8.112;2024-03-22T08:01:41;91245.69;;;16.31;54.57
69909;BME280;57190;47.918;8.112;2024-03-22T08:04:06;91242.50;;;20.94;44.06
69909;BME280;57190;47.918;8.112;2024-03-22T08:06:31;91244.63;;;21.36;43.50
69909;BME280;57190;47.918;8.112;2024-03-22T08:08:57;91250.09;;;21.75;42.63
69909;BME280;57190;47.918;8.112;2024-03-22T08:11:23;91247.75;;;22.24;40.15
69909;BME280;57190;47.918;8.112;2024-03-22T08:13:48;91250.00;;;25.02;37.04
69909;BME280;57190;47.918;8.112;2024-03-22T08:16:14;91239.47;;;24.10;36.79
69909;BME280;57190;47.918;8.112;2024-03-22T08:18:39;91247.75;;;22.54;39.45
69909;BME280;57190;47.918;8.112;2024-03-22T08:21:05;91246.81;;;22.92;38.96
69909;BME280;57190;47.918;8.112;2024-03-22T08:23:30;91241.50;;;24.38;36.59
69909;BME280;57190;47.918;8.112;2024-03-22T08:25:57;91244.91;;;25.57;33.83
69909;BME280;57190;47.918;8.112;2024-03-22T08:28:23;91232.09;;;24.35;33.94
69909;BME280;57190;47.918;8.112;2024-03-22T08:30:48;91228.66;;;25.04;32.37
69909;BME280;57190;47.918;8.112;2024-03-22T08:33:14;91226.06;;;25.84;31.98
69909;BME280;57190;47.918;8.112;2024-03-22T08:35:40;91216.28;;;25.67;30.81
69909;BME280;57190;47.918;8.112;2024-03-22T08:38:05;91207.72;;;26.32;28.04
69909;BME280;57190;47.918;8.112;2024-03-22T08:40:54;91212.00;;;26.85;29.58
69909;BME280;57190;47.918;8.112;2024-03-22T08:43:20;91207.34;;;27.68;27.25
69909;BME280;57190;47.918;8.112;2024-03-22T08:45:48;91207.25;;;28.07;25.62
69909;BME280;57190;47.918;8.112;2024-03-22T08:48:13;91199.91;;;27.06;26.73
69909;BME280;57190;47.918;8.112;2024-03-22T08:50:42;91200.25;;;26.49;28.16
69909;BME280;57190;47.918;8.112;2024-03-22T08:53:07;91204.25;;;26.71;26.38
69909;BME280;57190;47.918;8.112;2024-03-22T08:55:33;91199.00;;;27.60;25.88
69909;BME280;57190;47.918;8.112;2024-03-22T08:57:58;91200.31;;;28.40;24.66
69909;BME280;57190;47.918;8.112;2024-03-22T09:00:24;91194.50;;;28.45;25.11
69909;BME280;57190;47.918;8.112;2024-03-22T09:02:49;91192.06;;;27.43;25.68
69909;BME280;57190;47.918;8.112;2024-03-22T09:05:15;91193.84;;;26.41;26.70
69909;BME280;57190;47.918;8.112;2024-03-22T09:07:40;91194.25;;;25.43;28.35
69909;BME280;57190;47.918;8.112;2024-03-22T09:10:06;91181.22;;;23.90;29.82
69909;BME280;57190;47.918;8.112;2024-03-22T09:15:58;91181.13;;;22.48;33.30
69909;BME280;57190;47.918;8.112;2024-03-22T09:18:45;91180.78;;;21.39;34.18
69909;BME280;57190;47.918;8.112;2024-03-22T09:21:21;91179.03;;;20.86;34.72
69909;BME280;57190;47.918;8.112;2024-03-22T09:33:07;91172.72;;;21.12;35.55
69909;BME280;57190;47.918;8.112;2024-03-22T09:35:36;91177.59;;;20.80;36.47
69909;BME280;57190;47.918;8.112;2024-03-22T09:38:01;91170.88;;;20.86;36.26
69909;BME280;57190;47.918;8.112;2024-03-22T09:40:30;91167.69;;;20.84;36.54
69909;BME280;57190;47.918;8.112;2024-03-22T09:43:01;91169.09;;;20.99;36.62
69909;BME280;57190;47.918;8.112;2024-03-22T09:45:28;91165.16;;;20.62;36.83
69909;BME280;57190;47.918;8.112;2024-03-22T09:47:56;91163.59;;;20.52;37.09
69909;BME280;57190;47.918;8.112;2024-03-22T09:50:22;91156.56;;;20.51;37.03
69909;BME280;57190;47.918;8.112;2024-03-22T09:52:48;91155.47;;;20.34;37.50
69909;BME280;57190;47.918;8.112;2024-03-22T09:55:16;91156.91;;;20.05;37.67
69909;BME280;57190;47.918;8.112;2024-03-22T09:57:43;91154.53;;;20.39;36.74
69909;BME280;57190;47.918;8.112;2024-03-22T10:00:10;91153.69;;;20.73;38.06
69909;BME280;57190;47.918;8.112;2024-03-22T10:02:39;91156.22;;;20.61;37.17
69909;BME280;57190;47.918;8.112;2024-03-22T10:05:05;91152.53;;;20.83;36.13
69909;BME280;57190;47.918;8.112;2024-03-22T10:07:32;91144.75;;;20.64;35.67
69909;BME280;57190;47.918;8.112;2024-03-22T10:09:58;91153.09;;;20.24;36.12
69909;BME280;57190;47.918;8.112;2024-03-22T10:12:24;91151.09;;;19.80;36.68
69909;BME280;57190;47.918;8.112;2024-03-22T10:14:53;91153.81;;;19.72;37.51
69909;BME280;57190;47.918;8.112;2024-03-22T10:17:19;91146.56;;;19.32;37.33
69909;BME280;57190;47.918;8.112;2024-03-22T10:19:45;91147.59;;;19.62;37.58
69909;BME280;57190;47.918;8.112;2024-03-22T10:22:10;91147.72;;;19.48;37.40
69909;BME280;57190;47.918;8.112;2024-03-22T10:24:36;91156.09;;;19.29;37.34
69909;BME280;57190;47.918;8.112;2024-03-22T10:27:01;91154.72;;;19.50;36.96
69909;BME280;57190;47.918;8.112;2024-03-22T10:29:27;91149.56;;;19.30;36.47
69909;BME280;57190;47.918;8.112;2024-03-22T10:31:55;91144.63;;;19.32;35.28
69909;BME280;57190;47.918;8.112;2024-03-22T10:34:21;91146.31;;;19.11;35.89
69909;BME280;57190;47.918;8.112;2024-03-22T10:36:48;91144.06;;;19.04;34.56
69909;BME280;57190;47.918;8.112;2024-03-22T10:39:17;91139.97;;;19.15;34.57
69909;BME280;57190;47.918;8.112;2024-03-22T10:41:45;91145.81;;;19.09;28.90
69909;BME280;57190;47.918;8.112;2024-03-22T10:44:11;91134.25;;;18.85;29.33
69909;BME280;57190;47.918;8.112;2024-03-22T10:46:38;91125.34;;;18.85;30.13
69909;BME280;57190;47.918;8.112;2024-03-22T10:49:05;91127.19;;;18.67;31.28
69909;BME280;57190;47.918;8.112;2024-03-22T10:51:33;91126.44;;;18.52;32.21
69909;BME280;57190;47.918;8.112;2024-03-22T10:54:02;91119.34;;;18.34;33.18
69909;BME280;57190;47.918;8.112;2024-03-22T10:56:29;91123.13;;;18.56;33.92
69909;BME280;57190;47.918;8.112;2024-03-22T10:58:55;91119.78;;;18.81;33.52
69909;BME280;57190;47.918;8.112;2024-03-22T11:01:25;91113.66;;;18.98;31.71
69909;BME280;57190;47.918;8.112;2024-03-22T11:04:02;91113.88;;;19.11;32.85
69909;BME280;57190;47.918;8.112;2024-03-22T11:06:28;91109.19;;;19.43;31.85
69909;BME280;57190;47.918;8.112;2024-03-22T11:08:54;91101.53;;;19.36;31.83
69909;BME280;57190;47.918;8.112;2024-03-22T11:11:19;91104.84;;;19.24;30.80
69909;BME280;57190;47.918;8.112;2024-03-22T11:13:48;91100.84;;;19.13;31.20
69909;BME280;57190;47.918;8.112;2024-03-22T11:16:16;91093.59;;;18.91;31.05
69909;BME280;57190;47.918;8.112;2024-03-22T11:18:43;91095.69;;;18.62;29.48
69909;BME280;57190;47.918;8.112;2024-03-22T11:21:09;91086.81;;;18.70;31.69
69909;BME280;57190;47.918;8.112;2024-03-22T11:23:40;91088.38;;;19.03;30.19
69909;BME280;57190;47.918;8.112;2024-03-22T11:26:13;91079.00;;;19.00;30.52
69909;BME280;57190;47.918;8.112;2024-03-22T11:28:39;91079.34;;;18.99;30.64
69909;BME280;57190;47.918;8.112;2024-03-22T11:31:05;91072.72;;;18.82;31.07
69909;BME280;57190;47.918;8.112;2024-03-22T11:33:31;91072.81;;;19.00;31.36
69909;BME280;57190;47.918;8.112;2024-03-22T11:35:59;91057.84;;;18.94;28.78
69909;BME280;57190;47.918;8.112;2024-03-22T11:38:29;91058.66;;;18.63;29.06
69909;BME280;57190;47.918;8.112;2024-03-22T11:40:57;91054.81;;;18.55;30.87
69909;BME280;57190;47.918;8.112;2024-03-22T11:43:23;91055.38;;;18.43;30.83
69909;BME280;57190;47.918;8.112;2024-03-22T11:45:49;91048.84;;;18.35;31.43
69909;BME280;57190;47.918;8.112;2024-03-22T11:48:18;91046.25;;;18.30;31.04
69909;BME280;57190;47.918;8.112;2024-03-22T11:50:43;91048.13;;;18.21;31.82
69909;BME280;57190;47.918;8.112;2024-03-22T11:53:10;91041.41;;;18.18;32.31
69909;BME280;57190;47.918;8.112;2024-03-22T11:55:36;91040.63;;;17.95;31.10
69909;BME280;57190;47.918;8.112;2024-03-22T11:58:01;91037.94;;;17.95;31.01
69909;BME280;57190;47.918;8.112;2024-03-22T12:00:30;91044.06;;;17.87;32.05
69909;BME280;57190;47.918;8.112;2024-03-22T12:02:56;91031.38;;;18.10;31.85
69909;BME280;57190;47.918;8.112;2024-03-22T12:05:22;91029.19;;;18.44;32.73
69909;BME280;57190;47.918;8.112;2024-03-22T12:07:48;91020.22;;;18.26;32.11
69909;BME280;57190;47.918;8.112;2024-03-22T12:10:14;91025.34;;;18.04;33.38
69909;BME280;57190;47.918;8.112;2024-03-22T12:12:39;91019.88;;;18.27;33.92
69909;BME280;57190;47.918;8.112;2024-03-22T12:15:05;91021.91;;;18.21;33.39
69909;BME280;57190;47.918;8.112;2024-03-22T12:17:31;91017.75;;;18.15;33.41
69909;BME280;57190;47.918;8.112;2024-03-22T12:19:56;91014.56;;;18.13;33.84
69909;BME280;57190;47.918;8.112;2024-03-22T12:22:22;91015.66;;;18.12;34.18
69909;BME280;57190;47.918;8.112;2024-03-22T12:24:48;91010.75;;;18.14;34.52
69909;BME280;57190;47.918;8.112;2024-03-22T12:27:13;91007.41;;;18.09;36.04
69909;BME280;57190;47.918;8.112;2024-03-22T12:29:39;91009.19;;;17.90;36.25
69909;BME280;57190;47.918;8.112;2024-03-22T12:32:05;91003.06;;;17.99;36.61
69909;BME280;57190;47.918;8.112;2024-03-22T12:34:31;91003.78;;;18.13;36.81
69909;BME280;57190;47.918;8.112;2024-03-22T12:36:59;91003.03;;;17.76;36.53
69909;BME280;57190;47.918;8.112;2024-03-22T12:39:24;90995.69;;;17.68;37.27
69909;BME280;57190;47.918;8.112;2024-03-22T12:41:50;91001.63;;;17.56;37.61
69909;BME280;57190;47.918;8.112;2024-03-22T12:44:16;90991.28;;;17.72;38.08
69909;BME280;57190;47.918;8.112;2024-03-22T12:46:41;90989.69;;;17.71;37.88
69909;BME280;57190;47.918;8.112;2024-03-22T12:49:11;90994.84;;;17.58;37.50
69909;BME280;57190;47.918;8.112;2024-03-22T12:51:37;90992.97;;;17.45;37.71
69909;BME280;57190;47.918;8.112;2024-03-22T12:54:03;90983.97;;;17.50;38.15
69909;BME280;57190;47.918;8.112;2024-03-22T12:56:30;90979.88;;;17.52;37.21
69909;BME280;57190;47.918;8.112;2024-03-22T12:58:55;90976.63;;;17.41;37.05
69909;BME280;57190;47.918;8.112;2024-03-22T13:01:21;90973.50;;;17.48;36.60
69909;BME280;57190;47.918;8.112;2024-03-22T13:03:47;90970.84;;;17.57;35.09
69909;BME280;57190;47.918;8.112;2024-03-22T13:06:12;90968.84;;;17.63;35.64
69909;BME280;57190;47.918;8.112;2024-03-22T13:08:41;90957.72;;;17.87;34.40
69909;BME280;57190;47.918;8.112;2024-03-22T13:11:07;90955.09;;;17.96;34.87
69909;BME280;57190;47.918;8.112;2024-03-22T13:13:36;90953.25;;;18.05;34.66
69909;BME280;57190;47.918;8.112;2024-03-22T13:16:02;90940.03;;;17.72;33.45